createdAt,value
2023-01-07T00:01:45.451Z,2.97
2023-01-07T00:04:16.997Z,3.38
2023-01-07T00:06:46.392Z,3.00
2023-01-07T00:09:18.833Z,3.20
2023-01-07T00:11:47.285Z,3.40
2023-01-07T00:14:21.437Z,3.00
2023-01-07T00:16:48.983Z,3.40
2023-01-07T00:19:16.985Z,3.45
2023-01-07T00:21:52.477Z,3.97
2023-01-07T00:24:19.919Z,3.35
2023-01-07T00:26:51.340Z,3.58
2023-01-07T00:29:21.045Z,3.63
2023-01-07T00:31:48.480Z,3.83
2023-01-07T00:34:17.864Z,3.88
2023-01-07T00:36:47.021Z,3.83
2023-01-07T00:39:21.418Z,4.00
2023-01-07T00:42:08.890Z,4.55
2023-01-07T00:44:38.078Z,3.60
2023-01-07T00:47:07.516Z,3.95
2023-01-07T00:49:34.854Z,3.85
2023-01-07T00:52:03.128Z,4.13
2023-01-07T00:54:30.892Z,4.22
2023-01-07T00:56:58.331Z,4.20
2023-01-07T00:59:27.602Z,4.38
2023-01-07T01:01:55.289Z,4.57
2023-01-07T01:04:22.865Z,4.32
2023-01-07T01:06:50.228Z,4.88
2023-01-07T01:09:17.669Z,4.65
2023-01-07T01:11:45.092Z,4.20
2023-01-07T01:14:15.631Z,3.92
2023-01-07T01:16:43.160Z,4.28
2023-01-07T01:19:10.747Z,4.78
2023-01-07T01:21:41.343Z,3.88
2023-01-07T01:24:09.543Z,4.15
2023-01-07T01:29:05.870Z,4.30
2023-01-07T01:31:34.580Z,5.47
2023-01-07T01:34:02.039Z,6.95
2023-01-07T01:36:30.384Z,4.60
2023-01-07T01:38:58.620Z,5.03
2023-01-07T01:41:28.175Z,4.93
2023-01-07T01:43:55.760Z,4.90
2023-01-07T01:46:45.709Z,4.93
2023-01-07T01:49:30.861Z,5.28
2023-01-07T01:52:11.869Z,5.53
2023-01-07T01:54:45.664Z,5.68
2023-01-07T01:57:24.442Z,5.35
2023-01-07T01:59:53.912Z,5.50
2023-01-07T02:02:34.480Z,5.78
2023-01-07T02:05:04.750Z,5.30
2023-01-07T02:07:40.359Z,5.53
2023-01-07T02:10:18.681Z,5.68
2023-01-07T02:13:35.723Z,5.40
2023-01-07T02:17:08.984Z,5.45
2023-01-07T02:20:22.665Z,5.63
2023-01-07T02:23:47.244Z,6.13
2023-01-07T02:26:51.429Z,6.22
2023-01-07T02:30:01.749Z,6.57
2023-01-07T02:33:20.235Z,6.43
2023-01-07T02:36:16.374Z,6.47
2023-01-07T02:39:01.829Z,7.47
2023-01-07T02:41:48.915Z,7.03
2023-01-07T02:45:00.764Z,7.10
2023-01-07T02:48:00.605Z,7.50
2023-01-07T02:50:28.504Z,8.43
2023-01-07T02:52:55.804Z,7.38
2023-01-07T02:56:13.046Z,7.38
2023-01-07T02:59:25.113Z,7.40
2023-01-07T03:02:10.993Z,6.93
2023-01-07T03:04:48.244Z,7.57
2023-01-07T03:07:51.921Z,8.00
2023-01-07T03:10:45.736Z,8.32
2023-01-07T03:13:24.761Z,8.77
2023-01-07T03:16:21.051Z,9.48
2023-01-07T03:19:11.649Z,8.82
2023-01-07T03:21:40.312Z,9.13
2023-01-07T03:24:10.867Z,9.00
2023-01-07T03:26:44.303Z,7.93
2023-01-07T03:29:16.057Z,8.63
2023-01-07T03:32:14.906Z,9.60
2023-01-07T03:34:45.688Z,8.43
2023-01-07T03:37:20.736Z,8.85
2023-01-07T03:39:50.009Z,8.73
2023-01-07T03:42:41.473Z,8.52
2023-01-07T03:45:13.575Z,8.77
2023-01-07T03:47:48.227Z,8.15
2023-01-07T03:50:17.967Z,7.85
2023-01-07T03:52:46.337Z,7.90
2023-01-07T03:55:13.685Z,7.13
2023-01-07T03:57:44.132Z,8.27
2023-01-07T04:00:14.389Z,8.52
2023-01-07T04:02:43.512Z,8.18
2023-01-07T04:05:17.911Z,7.82
2023-01-07T04:07:45.207Z,7.47
2023-01-07T04:10:13.468Z,8.15
2023-01-07T04:12:41.944Z,8.00
2023-01-07T04:17:39.138Z,7.95
2023-01-07T04:20:08.033Z,7.28
2023-01-07T04:22:36.653Z,7.30
2023-01-07T04:25:05.937Z,8.73
2023-01-07T04:27:34.641Z,6.97
2023-01-07T04:30:02.167Z,7.82
2023-01-07T04:32:30.218Z,8.27
2023-01-07T04:34:57.797Z,7.35
2023-01-07T04:37:25.179Z,7.37
2023-01-07T04:39:53.768Z,7.47
2023-01-07T04:42:21.336Z,6.95
2023-01-07T04:44:48.713Z,7.47
2023-01-07T04:47:16.243Z,8.50
2023-01-07T04:49:45.039Z,7.68
2023-01-07T04:52:23.755Z,7.60
2023-01-07T04:54:51.112Z,8.07
2023-01-07T04:57:18.984Z,8.50
2023-01-07T04:59:46.404Z,7.60
2023-01-07T05:02:15.039Z,8.20
2023-01-07T05:04:42.624Z,7.82
2023-01-07T05:07:11.617Z,7.67
2023-01-07T05:09:39.479Z,7.35
2023-01-07T05:12:07.037Z,7.68
2023-01-07T05:14:36.240Z,7.30
2023-01-07T05:17:04.917Z,7.40
2023-01-07T05:19:32.393Z,7.15
2023-01-07T05:22:00.865Z,7.50
2023-01-07T05:24:31.939Z,8.07
2023-01-07T05:26:59.278Z,6.90
2023-01-07T05:29:28.309Z,6.97
2023-01-07T05:31:56.182Z,6.55
2023-01-07T05:34:23.606Z,6.68
2023-01-07T05:36:52.976Z,5.85
2023-01-07T05:39:21.564Z,6.55
2023-01-07T05:41:48.954Z,6.20
2023-01-07T05:44:16.314Z,5.95
2023-01-07T05:46:43.862Z,6.22
2023-01-07T05:49:13.064Z,6.47
2023-01-07T05:51:43.602Z,6.47
2023-01-07T05:54:11.154Z,6.10
2023-01-07T05:56:39.923Z,5.80
2023-01-07T05:59:07.553Z,6.30
2023-01-07T06:01:34.882Z,6.22
2023-01-07T06:04:02.189Z,5.35
2023-01-07T06:06:31.454Z,6.43
2023-01-07T06:09:00.217Z,5.80
2023-01-07T06:11:29.962Z,6.97
2023-01-07T06:13:57.461Z,5.88
2023-01-07T06:16:25.850Z,5.72
2023-01-07T06:18:54.829Z,6.70
2023-01-07T06:21:22.304Z,6.20
2023-01-07T06:23:49.848Z,6.07
2023-01-07T06:26:17.308Z,6.57
2023-01-07T06:28:47.248Z,6.72
2023-01-07T06:31:19.009Z,6.72
2023-01-07T06:33:49.349Z,6.93
2023-01-07T06:36:17.182Z,6.30
2023-01-07T06:38:44.689Z,7.10
2023-01-07T06:41:12.263Z,6.67
2023-01-07T06:43:39.821Z,6.20
2023-01-07T06:46:09.515Z,6.47
2023-01-07T06:48:38.632Z,6.00
2023-01-07T06:51:07.790Z,6.35
2023-01-07T06:53:35.200Z,6.38
2023-01-07T06:56:02.652Z,7.70
2023-01-07T06:58:33.182Z,6.30
2023-01-07T07:01:08.788Z,6.60
2023-01-07T07:03:37.495Z,6.30
2023-01-07T07:06:05.811Z,6.57
2023-01-07T07:08:33.577Z,6.18
2023-01-07T07:11:04.793Z,6.28
2023-01-07T07:13:33.200Z,6.90
2023-01-07T07:18:29.052Z,6.07
2023-01-07T07:20:58.574Z,6.10
2023-01-07T07:23:26.018Z,6.90
2023-01-07T07:25:53.765Z,6.80
2023-01-07T07:28:21.266Z,7.78
2023-01-07T07:30:48.895Z,6.63
2023-01-07T07:33:20.046Z,7.43
2023-01-07T07:35:48.318Z,7.43
2023-01-07T07:38:17.857Z,7.28
2023-01-07T07:40:46.689Z,7.07
2023-01-07T07:43:15.317Z,7.10
2023-01-07T07:45:44.491Z,8.02
2023-01-07T07:48:22.747Z,7.00
2023-01-07T07:53:21.453Z,7.25
2023-01-07T07:58:16.520Z,8.35
2023-01-07T08:00:44.179Z,8.10
2023-01-07T08:03:12.242Z,8.32
2023-01-07T08:05:46.576Z,8.32
2023-01-07T08:08:15.930Z,8.68
2023-01-07T08:10:44.942Z,10.50
2023-01-07T08:13:12.338Z,10.07
2023-01-07T08:15:41.816Z,8.55
2023-01-07T08:18:10.715Z,9.32
2023-01-07T08:20:38.845Z,8.05
2023-01-07T08:23:09.248Z,8.30
2023-01-07T08:25:37.158Z,8.15
2023-01-07T08:28:05.103Z,7.13
2023-01-07T08:30:32.637Z,7.22
2023-01-07T08:33:04.510Z,7.00
2023-01-07T08:38:16.270Z,6.70
2023-01-07T08:40:44.481Z,6.25
2023-01-07T08:43:12.528Z,6.93
2023-01-07T08:45:41.349Z,5.53
2023-01-07T08:48:11.313Z,5.40
2023-01-07T08:50:38.709Z,5.05
2023-01-07T08:53:06.181Z,5.95
2023-01-07T08:55:36.733Z,4.93
2023-01-07T08:58:05.331Z,4.82
2023-01-07T09:00:33.291Z,4.60
2023-01-07T09:03:04.725Z,4.22
2023-01-07T09:05:33.405Z,4.20
2023-01-07T09:08:04.484Z,4.40
2023-01-07T09:10:37.196Z,4.10
2023-01-07T09:13:04.758Z,3.83
2023-01-07T09:15:32.323Z,4.43
2023-01-07T09:17:59.682Z,4.10
2023-01-07T09:20:27.102Z,4.20
2023-01-07T09:22:54.497Z,4.10
2023-01-07T09:25:22.311Z,4.00
2023-01-07T09:27:49.729Z,3.50
2023-01-07T09:30:17.992Z,3.10
2023-01-07T09:32:46.006Z,3.25
2023-01-07T09:35:14.126Z,3.47
2023-01-07T09:37:42.523Z,3.45
2023-01-07T09:43:26.479Z,3.15
2023-01-07T09:46:18.328Z,3.45
2023-01-07T09:48:54.136Z,2.42
2023-01-07T09:51:45.604Z,2.45
2023-01-07T09:54:31.479Z,3.10
2023-01-07T09:56:59.918Z,3.38
2023-01-07T09:59:28.993Z,2.80
2023-01-07T10:02:23.471Z,3.30
2023-01-07T10:05:28.760Z,3.47
2023-01-07T10:08:37.038Z,3.20
2023-01-07T10:11:49.342Z,2.97
2023-01-07T10:14:51.655Z,3.03
2023-01-07T10:18:17.281Z,3.17
2023-01-07T10:20:48.011Z,3.03
2023-01-07T10:23:28.778Z,3.08
2023-01-07T10:26:28.665Z,2.92
2023-01-07T10:29:10.821Z,2.90
2023-01-07T10:31:38.868Z,2.88
2023-01-07T10:34:17.009Z,3.15
2023-01-07T10:37:18.715Z,3.88
2023-01-07T10:39:58.988Z,3.28
2023-01-07T10:43:07.999Z,3.33
2023-01-07T10:46:14.014Z,3.40
2023-01-07T10:49:09.533Z,3.25
2023-01-07T10:52:12.687Z,3.03
2023-01-07T10:54:49.363Z,3.03
2023-01-07T10:57:29.744Z,2.65
2023-01-07T11:00:02.839Z,3.28
2023-01-07T11:02:32.591Z,3.30
2023-01-07T11:05:00.604Z,3.67
2023-01-07T11:08:06.876Z,3.25
2023-01-07T11:10:38.663Z,2.97
2023-01-07T11:13:21.217Z,3.47
2023-01-07T11:16:10.545Z,3.10
2023-01-07T11:19:09.670Z,3.40
2023-01-07T11:21:49.024Z,3.92
2023-01-07T11:24:35.150Z,3.50
2023-01-07T11:27:07.789Z,3.20
2023-01-07T11:29:45.542Z,3.63
2023-01-07T11:32:32.412Z,3.58
2023-01-07T11:35:23.023Z,3.42
2023-01-07T11:37:51.212Z,3.28
2023-01-07T11:40:27.599Z,2.78
2023-01-07T11:43:23.575Z,3.75
2023-01-07T11:46:19.538Z,3.55
2023-01-07T11:48:52.805Z,2.97
2023-01-07T11:51:24.749Z,3.35
2023-01-07T11:53:56.659Z,2.92
2023-01-07T11:56:30.089Z,3.10
2023-01-07T11:59:16.733Z,3.13
2023-01-07T12:01:49.309Z,4.03
2023-01-07T12:04:37.310Z,3.63
2023-01-07T12:07:13.217Z,3.90
2023-01-07T12:09:46.414Z,3.42
2023-01-07T12:12:32.081Z,3.63
2023-01-07T12:15:16.703Z,3.10
2023-01-07T12:17:50.175Z,2.60
2023-01-07T12:21:01.871Z,3.15
2023-01-07T12:23:44.230Z,3.42
2023-01-07T12:26:49.289Z,3.22
2023-01-07T12:29:44.961Z,3.60
2023-01-07T12:32:39.840Z,5.13
2023-01-07T12:35:43.097Z,6.82
2023-01-07T12:38:27.869Z,7.28
2023-01-07T12:41:11.908Z,7.03
2023-01-07T12:44:18.544Z,6.90
2023-01-07T12:47:30.775Z,6.35
2023-01-07T12:50:24.273Z,6.15
2023-01-07T12:53:12.409Z,5.70
2023-01-07T12:56:38.466Z,5.53
2023-01-07T12:59:46.419Z,5.28
2023-01-07T13:02:52.044Z,5.75
2023-01-07T13:05:37.088Z,6.28
2023-01-07T13:08:44.851Z,6.78
2023-01-07T13:11:53.267Z,5.35
2023-01-07T13:14:39.221Z,5.00
2023-01-07T13:17:30.997Z,5.18
2023-01-07T13:19:58.814Z,5.55
2023-01-07T13:22:45.935Z,6.50
2023-01-07T13:25:49.519Z,7.20
2023-01-07T13:28:33.161Z,7.65
2023-01-07T13:31:35.399Z,6.50
2023-01-07T13:34:44.213Z,6.03
2023-01-07T13:37:58.403Z,5.90
2023-01-07T13:40:56.165Z,6.13
2023-01-07T13:43:51.521Z,5.70
2023-01-07T13:46:30.980Z,6.35
2023-01-07T13:48:58.561Z,7.72
2023-01-07T13:51:37.954Z,7.95
2023-01-07T13:54:05.582Z,8.13
2023-01-07T13:56:38.938Z,8.93
2023-01-07T13:59:31.743Z,8.05
2023-01-07T14:02:58.136Z,8.85
2023-01-07T14:05:29.675Z,8.93
2023-01-07T14:08:02.427Z,8.20
2023-01-07T14:10:37.310Z,8.48
2023-01-07T14:13:42.678Z,8.95
2023-01-07T14:16:39.907Z,9.02
2023-01-07T14:19:41.730Z,8.70
2023-01-07T14:22:34.972Z,7.95
2023-01-07T14:25:16.027Z,8.05
2023-01-07T14:29:05.604Z,9.75
2023-01-07T14:31:34.783Z,9.02
2023-01-07T14:34:25.764Z,9.18
2023-01-07T14:37:02.469Z,8.55
2023-01-07T14:39:53.124Z,9.23
2023-01-07T14:42:20.820Z,9.65
2023-01-07T14:44:50.826Z,9.02
2023-01-07T14:47:45.998Z,8.63
2023-01-07T14:50:35.010Z,8.85
2023-01-07T14:53:51.394Z,9.07
2023-01-07T14:56:58.080Z,9.30
2023-01-07T14:59:59.416Z,9.50
2023-01-07T15:03:21.996Z,9.10
2023-01-07T15:06:32.493Z,9.75
2023-01-07T15:09:23.829Z,9.63
2023-01-07T15:12:14.701Z,10.32
2023-01-07T15:15:35.221Z,9.05
2023-01-07T15:18:09.608Z,9.68
2023-01-07T15:20:57.735Z,9.98
2023-01-07T15:23:54.116Z,10.40
2023-01-07T15:26:45.399Z,11.07
2023-01-07T15:29:42.879Z,10.15
2023-01-07T15:32:41.399Z,11.05
2023-01-07T15:35:25.712Z,11.05
2023-01-07T15:37:53.670Z,12.40
2023-01-07T15:40:25.394Z,14.00
2023-01-07T15:42:58.806Z,13.68
2023-01-07T15:45:28.615Z,13.52
2023-01-07T15:48:13.609Z,16.00
2023-01-07T15:50:45.759Z,17.38
2023-01-07T15:53:13.033Z,17.48
2023-01-07T15:56:06.916Z,17.95
2023-01-07T15:58:40.528Z,17.67
2023-01-07T16:01:22.545Z,18.17
2023-01-07T16:03:57.651Z,18.70
2023-01-07T16:06:31.215Z,19.70
2023-01-07T16:09:26.097Z,20.02
2023-01-07T16:11:53.721Z,20.77
2023-01-07T16:14:28.359Z,22.17
2023-01-07T16:17:16.150Z,22.63
2023-01-07T16:19:43.743Z,21.95
2023-01-07T16:22:22.833Z,23.07
2023-01-07T16:24:53.609Z,23.05
2023-01-07T16:27:29.621Z,23.90
2023-01-07T16:30:00.219Z,23.50
2023-01-07T16:32:27.750Z,24.40
2023-01-07T16:35:10.080Z,24.70
2023-01-07T16:37:40.703Z,24.38
2023-01-07T16:40:38.932Z,23.88
2023-01-07T16:46:30.548Z,23.92
2023-01-07T16:49:26.087Z,25.65
2023-01-07T16:52:14.181Z,24.20
2023-01-07T16:54:50.709Z,23.90
2023-01-07T16:57:34.846Z,27.33
2023-01-07T17:00:06.130Z,25.02
2023-01-07T17:02:56.725Z,26.10
2023-01-07T17:05:26.747Z,26.63
2023-01-07T17:08:14.303Z,25.13
2023-01-07T17:10:44.092Z,26.35
2023-01-07T17:13:14.731Z,25.88
2023-01-07T17:15:44.012Z,29.75
2023-01-07T17:18:17.515Z,27.95
2023-01-07T17:20:54.646Z,29.67
2023-01-07T17:23:40.527Z,28.73
2023-01-07T17:26:25.644Z,25.40
2023-01-07T17:29:00.927Z,26.27
2023-01-07T17:31:29.039Z,26.30
2023-01-07T17:33:58.041Z,24.92
2023-01-07T17:36:27.231Z,25.05
2023-01-07T17:38:54.889Z,25.73
2023-01-07T17:41:42.596Z,23.70
2023-01-07T17:44:13.109Z,24.60
2023-01-07T17:46:42.054Z,24.48
2023-01-07T17:49:20.929Z,24.70
2023-01-07T17:51:50.251Z,24.67
2023-01-07T17:54:26.261Z,26.08
2023-01-07T17:56:55.379Z,24.15
2023-01-07T17:59:24.233Z,23.05
2023-01-07T18:04:22.901Z,23.77
2023-01-07T18:06:50.238Z,23.93
2023-01-07T18:09:20.029Z,25.98
2023-01-07T18:12:06.801Z,23.85
2023-01-07T18:14:34.468Z,26.00
2023-01-07T18:17:01.730Z,25.40
2023-01-07T18:19:30.916Z,24.60
2023-01-07T18:22:09.228Z,25.10
2023-01-07T18:24:36.591Z,23.75
2023-01-07T18:27:04.425Z,24.08
2023-01-07T18:29:31.780Z,23.55
2023-01-07T18:32:00.510Z,24.30
2023-01-07T18:34:29.308Z,25.25
2023-01-07T18:36:56.712Z,23.05
2023-01-07T18:39:24.251Z,24.00
2023-01-07T18:41:54.131Z,22.53
2023-01-07T18:44:24.147Z,21.35
2023-01-07T18:46:52.997Z,21.77
2023-01-07T18:49:20.631Z,22.27
2023-01-07T18:51:49.945Z,22.30
2023-01-07T18:54:17.841Z,23.40
2023-01-07T18:56:48.414Z,23.13
2023-01-07T18:59:15.824Z,24.08
2023-01-07T19:01:43.910Z,24.00
2023-01-07T19:04:11.898Z,22.52
2023-01-07T19:06:39.414Z,24.30
2023-01-07T19:09:07.051Z,24.23
2023-01-07T19:11:34.599Z,24.98
2023-01-07T19:14:02.658Z,26.17
2023-01-07T19:16:30.388Z,26.42
2023-01-07T19:18:57.985Z,26.83
2023-01-07T19:21:26.736Z,26.52
2023-01-07T19:23:54.609Z,25.30
2023-01-07T19:26:22.300Z,25.45
2023-01-07T19:28:50.273Z,26.85
2023-01-07T19:31:17.800Z,25.42
2023-01-07T19:33:45.262Z,25.05
2023-01-07T19:36:14.732Z,25.37
2023-01-07T19:38:47.699Z,26.10
2023-01-07T19:41:19.882Z,24.92
2023-01-07T19:43:52.186Z,26.30
2023-01-07T19:46:20.466Z,24.23
2023-01-07T19:48:48.533Z,24.85
2023-01-07T19:51:15.983Z,26.58
2023-01-07T19:53:43.334Z,25.65
2023-01-07T19:56:13.628Z,25.95
2023-01-07T19:58:42.182Z,25.95
2023-01-07T20:03:41.480Z,25.42
2023-01-07T20:06:16.587Z,25.08
2023-01-07T20:08:44.363Z,24.95
2023-01-07T20:11:13.463Z,25.30
2023-01-07T20:13:46.758Z,26.27
2023-01-07T20:16:21.985Z,25.42
2023-01-07T20:18:55.083Z,26.05
2023-01-07T20:21:26.620Z,23.85
2023-01-07T20:23:54.818Z,24.95
2023-01-07T20:26:29.537Z,24.42
2023-01-07T20:28:58.849Z,23.98
2023-01-07T20:31:29.406Z,28.13
2023-01-07T20:33:59.213Z,24.60
2023-01-07T20:36:30.562Z,26.20
2023-01-07T20:39:03.407Z,26.73
2023-01-07T20:41:31.095Z,25.70
2023-01-07T20:44:02.121Z,26.75
2023-01-07T20:46:32.246Z,27.08
2023-01-07T20:48:59.733Z,27.17
2023-01-07T20:51:30.411Z,27.90
2023-01-07T20:53:58.938Z,29.30
2023-01-07T20:56:31.923Z,26.05
2023-01-07T20:59:07.665Z,28.13
2023-01-07T21:01:35.205Z,26.13
2023-01-07T21:04:04.531Z,27.60
2023-01-07T21:06:33.405Z,27.83
2023-01-07T21:09:00.885Z,27.77
2023-01-07T21:11:28.463Z,27.03
2023-01-07T21:13:56.605Z,27.40
2023-01-07T21:16:30.996Z,27.58
2023-01-07T21:18:58.647Z,27.50
2023-01-07T21:21:26.996Z,28.13
2023-01-07T21:26:25.287Z,24.90
2023-01-07T21:28:56.130Z,24.45
2023-01-07T21:31:25.467Z,23.27
2023-01-07T21:33:58.339Z,23.20
2023-01-07T21:36:28.886Z,23.10
2023-01-07T21:38:59.312Z,22.33
2023-01-07T21:41:29.738Z,22.25
2023-01-07T21:43:57.275Z,22.90
2023-01-07T21:46:32.033Z,23.53
2023-01-07T21:49:01.337Z,23.23
2023-01-07T21:51:28.893Z,21.23
2023-01-07T21:53:58.609Z,24.33
2023-01-07T21:56:32.406Z,23.48
2023-01-07T21:59:00.779Z,24.00
2023-01-07T22:01:29.673Z,26.85
2023-01-07T22:03:59.268Z,26.38
2023-01-07T22:06:33.712Z,29.85
2023-01-07T22:09:05.115Z,30.88
2023-01-07T22:11:35.283Z,31.65
2023-01-07T22:14:02.725Z,30.80
2023-01-07T22:16:32.459Z,32.60
2023-01-07T22:19:01.405Z,30.23
2023-01-07T22:21:28.872Z,33.25
2023-01-07T22:23:56.260Z,34.22
2023-01-07T22:26:23.858Z,34.07
2023-01-07T22:28:59.496Z,32.20
2023-01-07T22:31:36.713Z,31.58
2023-01-07T22:34:06.538Z,32.65
2023-01-07T22:36:52.197Z,35.50
2023-01-07T22:39:37.216Z,33.92
2023-01-07T22:42:15.163Z,33.13
2023-01-07T22:44:51.691Z,34.83
2023-01-07T22:47:26.011Z,35.60
2023-01-07T22:49:55.207Z,36.08
2023-01-07T22:52:22.873Z,36.17
2023-01-07T22:54:50.483Z,33.80
2023-01-07T22:57:18.406Z,36.38
2023-01-07T22:59:47.144Z,33.88
2023-01-07T23:02:15.689Z,37.08
2023-01-07T23:04:43.542Z,35.88
2023-01-07T23:07:10.865Z,37.50
2023-01-07T23:09:39.530Z,37.72
2023-01-07T23:12:09.370Z,37.53
2023-01-07T23:14:37.459Z,36.42
2023-01-07T23:17:04.968Z,37.08
2023-01-07T23:19:32.441Z,37.37
2023-01-07T23:22:00.212Z,37.33
2023-01-07T23:24:27.647Z,36.22
2023-01-07T23:26:57.112Z,37.95
2023-01-07T23:29:24.641Z,39.22
2023-01-07T23:31:52.113Z,39.63
2023-01-07T23:34:20.111Z,36.47
2023-01-07T23:36:47.942Z,36.42
2023-01-07T23:39:21.521Z,37.05
2023-01-07T23:41:49.477Z,38.05
2023-01-07T23:44:17.718Z,36.50
2023-01-07T23:46:45.171Z,39.58
2023-01-07T23:49:13.758Z,40.88
2023-01-07T23:54:09.756Z,38.90
2023-01-07T23:59:06.657Z,36.30
